Terminal Aerodrome Forecast
Issued by NWS Denver/Boulder, CO

Home | Current Version | Previous Version | Text Only | Print | Product List | Glossary On
Versions: 1 2 3 4 5 6 7 8 9 10 11 12 13 14 15 16 17 18 19 20 21 22 23 24 25 26 27 28 29 30 31 32 33 34 35 36 37 38 39 40 41 42 43 44 45 46 47 48 49 50
503
FTUS45 KBOU 271135
TAFDEN
TAF
KDEN 271135Z 2712/2818 20012KT P6SM BKN220
     FM271500 36008KT P6SM SCT220
     FM271800 VRB06KT P6SM SCT220
     FM272100 17016G27KT P6SM FEW100 SCT220
     FM280100 10016G25KT P6SM FEW100 SCT150 BKN220
     FM280600 02010KT P6SM SCT020 BKN120
     FM281000 34008KT P6SM BKN016
     FM281700 02008KT P6SM SCT016 BKN030=

USA.gov is the U.S. government's official web portal to all federal, state and local government web resources and services.